createdAt,value
2023-05-14T00:00:15.347Z,2.54
2023-05-14T00:01:15.312Z,1.91
2023-05-14T00:02:15.411Z,2.61
2023-05-14T00:03:16.407Z,1.92
2023-05-14T00:04:15.326Z,2.24
2023-05-14T00:05:15.788Z,2.40
2023-05-14T00:06:15.274Z,2.54
2023-05-14T00:07:15.875Z,1.96
2023-05-14T00:08:15.255Z,2.60
2023-05-14T00:09:15.283Z,2.28
2023-05-14T00:10:15.273Z,2.50
2023-05-14T00:11:15.262Z,2.41
2023-05-14T00:12:15.257Z,2.65
2023-05-14T00:13:15.210Z,2.47
2023-05-14T00:14:15.251Z,2.44
2023-05-14T00:15:15.214Z,2.04
2023-05-14T00:16:15.264Z,2.51
2023-05-14T00:17:15.191Z,2.55
2023-05-14T00:18:15.806Z,2.34
2023-05-14T00:19:15.225Z,2.27
2023-05-14T00:20:15.315Z,2.21
2023-05-14T00:21:15.193Z,2.16
2023-05-14T00:22:15.204Z,1.88
2023-05-14T00:23:15.157Z,2.40
2023-05-14T00:24:15.174Z,2.05
2023-05-14T00:25:15.143Z,1.98
2023-05-14T00:26:15.167Z,1.90
2023-05-14T00:27:15.161Z,1.90
2023-05-14T00:28:15.772Z,2.14
2023-05-14T00:29:15.138Z,2.91
2023-05-14T00:30:15.294Z,2.54
2023-05-14T00:31:15.119Z,2.53
2023-05-14T00:32:15.087Z,2.25
2023-05-14T00:33:15.115Z,1.99
2023-05-14T00:34:15.121Z,1.95
2023-05-14T00:35:18.280Z,2.25
2023-05-14T00:36:16.958Z,2.56
2023-05-14T00:37:17.810Z,2.64
2023-05-14T00:38:15.062Z,2.51
2023-05-14T00:39:15.077Z,2.58
2023-05-14T00:40:15.045Z,2.54
2023-05-14T00:41:15.046Z,3.04
2023-05-14T00:42:15.062Z,2.50
2023-05-14T00:43:15.008Z,2.48
2023-05-14T00:44:15.028Z,2.66
2023-05-14T00:45:15.810Z,2.66
2023-05-14T00:46:15.047Z,2.84
2023-05-14T00:47:15.002Z,2.16
2023-05-14T00:48:14.996Z,2.33
2023-05-14T00:49:14.983Z,2.36
2023-05-14T00:50:15.332Z,2.56
2023-05-14T00:51:14.980Z,2.66
2023-05-14T00:52:14.970Z,2.61
2023-05-14T00:53:14.967Z,2.54
2023-05-14T00:54:14.958Z,3.25
2023-05-14T00:55:14.940Z,2.74
2023-05-14T00:56:14.941Z,2.98
2023-05-14T00:57:14.917Z,2.53
2023-05-14T00:58:14.935Z,2.11
2023-05-14T00:59:14.918Z,3.02
2023-05-14T01:00:15.321Z,2.43
2023-05-14T01:01:14.879Z,2.95
2023-05-14T01:02:15.818Z,2.96
2023-05-14T01:03:15.034Z,3.14
2023-05-14T01:04:14.904Z,2.82
2023-05-14T01:05:14.873Z,3.02
2023-05-14T01:06:14.856Z,2.86
2023-05-14T01:07:14.869Z,3.14
2023-05-14T01:08:14.853Z,2.90
2023-05-14T01:09:14.889Z,2.75
2023-05-14T01:10:15.307Z,2.83
2023-05-14T01:11:14.859Z,2.83
2023-05-14T01:12:14.818Z,2.91
2023-05-14T01:13:14.837Z,3.07
2023-05-14T01:14:14.817Z,2.59
2023-05-14T01:15:14.801Z,2.80
2023-05-14T01:16:14.922Z,2.58
2023-05-14T01:17:14.783Z,3.19
2023-05-14T01:18:14.821Z,2.89
2023-05-14T01:19:14.878Z,3.17
2023-05-14T01:20:14.812Z,3.13
2023-05-14T01:21:14.757Z,3.04
2023-05-14T01:22:14.759Z,3.35
2023-05-14T01:23:14.770Z,2.95
2023-05-14T01:24:14.749Z,3.00
2023-05-14T01:25:14.751Z,2.60
2023-05-14T01:26:14.740Z,2.89
2023-05-14T01:27:14.712Z,2.79
2023-05-14T01:28:14.705Z,3.11
2023-05-14T01:29:14.718Z,2.73
2023-05-14T01:30:14.827Z,2.66
2023-05-14T01:31:14.694Z,2.61
2023-05-14T01:32:14.709Z,2.45
2023-05-14T01:33:14.696Z,2.34
2023-05-14T01:34:14.672Z,2.30
2023-05-14T01:35:14.663Z,2.52
2023-05-14T01:36:14.650Z,2.68
2023-05-14T01:37:14.666Z,2.29
2023-05-14T01:38:14.619Z,3.01
2023-05-14T01:39:14.636Z,3.14
2023-05-14T01:40:14.838Z,2.87
2023-05-14T01:41:14.647Z,2.70
2023-05-14T01:42:14.591Z,2.76
2023-05-14T01:43:14.682Z,3.26
2023-05-14T01:44:14.603Z,2.88
2023-05-14T01:45:14.619Z,2.90
2023-05-14T01:46:14.630Z,2.88
2023-05-14T01:47:14.571Z,2.70
2023-05-14T01:48:14.579Z,2.82
2023-05-14T01:49:14.586Z,2.91
2023-05-14T01:50:14.850Z,2.94
2023-05-14T01:51:14.545Z,2.86
2023-05-14T01:52:14.578Z,3.04
2023-05-14T01:53:14.570Z,2.77
2023-05-14T01:54:14.556Z,2.53
2023-05-14T01:55:14.840Z,2.75
2023-05-14T01:56:14.535Z,3.16
2023-05-14T01:57:16.532Z,2.62
2023-05-14T01:58:14.580Z,2.73
2023-05-14T01:59:15.314Z,2.70
2023-05-14T02:00:14.809Z,3.09
2023-05-14T02:01:14.730Z,2.67
2023-05-14T02:02:14.650Z,2.90
2023-05-14T02:03:14.694Z,2.98
2023-05-14T02:04:14.732Z,2.51
2023-05-14T02:05:14.831Z,2.59
2023-05-14T02:06:14.780Z,3.04
2023-05-14T02:07:14.786Z,2.95
2023-05-14T02:08:14.815Z,2.49
2023-05-14T02:09:14.857Z,2.49
2023-05-14T02:10:14.879Z,2.36
2023-05-14T02:11:14.907Z,2.49
2023-05-14T02:12:14.911Z,2.69
2023-05-14T02:13:14.963Z,2.69
2023-05-14T02:14:16.861Z,2.50
2023-05-14T02:15:18.320Z,2.58
2023-05-14T02:16:15.069Z,2.62
2023-05-14T02:17:14.983Z,2.26
2023-05-14T02:18:14.972Z,2.07
2023-05-14T02:19:15.894Z,2.51
2023-05-14T02:20:15.329Z,2.51
2023-05-14T02:21:14.954Z,2.41
2023-05-14T02:22:14.973Z,2.17
2023-05-14T02:23:14.935Z,2.66
2023-05-14T02:24:14.936Z,2.81
2023-05-14T02:25:15.362Z,2.74
2023-05-14T02:26:14.915Z,2.42
2023-05-14T02:27:14.909Z,2.40
2023-05-14T02:28:14.911Z,2.42
2023-05-14T02:29:14.920Z,2.69
2023-05-14T02:30:15.319Z,3.22
2023-05-14T02:31:15.899Z,3.33
2023-05-14T02:32:14.911Z,3.25
2023-05-14T02:33:15.900Z,2.97
2023-05-14T02:34:14.860Z,2.88
2023-05-14T02:35:15.365Z,3.20
2023-05-14T02:36:14.847Z,2.83
2023-05-14T02:37:14.879Z,2.74
2023-05-14T02:38:14.826Z,3.19
2023-05-14T02:39:14.850Z,3.17
2023-05-14T02:40:14.800Z,3.24
2023-05-14T02:41:14.842Z,3.30
2023-05-14T02:42:14.835Z,3.46
2023-05-14T02:43:14.781Z,3.55
2023-05-14T02:44:14.812Z,3.18
2023-05-14T02:45:14.801Z,3.24
2023-05-14T02:46:14.869Z,3.20
2023-05-14T02:47:14.778Z,3.17
2023-05-14T02:48:14.754Z,3.26
2023-05-14T02:49:14.807Z,2.96
2023-05-14T02:50:14.749Z,4.04
2023-05-14T02:51:14.825Z,2.93
2023-05-14T02:52:14.724Z,3.81
2023-05-14T02:53:14.715Z,3.55
2023-05-14T02:54:16.412Z,3.37
2023-05-14T02:55:14.718Z,3.73
2023-05-14T02:56:14.825Z,3.59
2023-05-14T02:57:14.688Z,3.62
2023-05-14T02:58:14.704Z,2.99
2023-05-14T02:59:14.727Z,3.16
2023-05-14T03:00:14.689Z,3.89
2023-05-14T03:01:14.880Z,3.06
2023-05-14T03:02:14.773Z,3.36
2023-05-14T03:03:15.349Z,3.57
2023-05-14T03:04:14.803Z,4.10
2023-05-14T03:05:14.860Z,3.56
2023-05-14T03:06:15.350Z,3.46
2023-05-14T03:07:14.934Z,2.92
2023-05-14T03:08:14.934Z,3.22
2023-05-14T03:09:14.991Z,3.41
2023-05-14T03:10:15.020Z,3.24
2023-05-14T03:11:15.336Z,3.53
2023-05-14T03:12:15.065Z,3.36
2023-05-14T03:13:15.137Z,3.54
2023-05-14T03:14:15.151Z,3.47
2023-05-14T03:15:15.177Z,3.11
2023-05-14T03:16:15.357Z,3.07
2023-05-14T03:17:15.256Z,3.28
2023-05-14T03:18:15.277Z,3.20
2023-05-14T03:19:15.412Z,3.37
2023-05-14T03:20:15.319Z,3.28
2023-05-14T03:21:15.382Z,3.15
2023-05-14T03:22:15.409Z,3.15
2023-05-14T03:23:15.432Z,3.47
2023-05-14T03:24:15.457Z,3.07
2023-05-14T03:25:15.507Z,3.28
2023-05-14T03:26:15.854Z,3.61
2023-05-14T03:27:15.548Z,3.33
2023-05-14T03:28:15.606Z,3.11
2023-05-14T03:29:15.639Z,3.14
2023-05-14T03:30:15.673Z,3.11
2023-05-14T03:31:15.741Z,3.25
2023-05-14T03:32:15.785Z,3.67
2023-05-14T03:33:15.769Z,3.03
2023-05-14T03:34:15.884Z,2.97
2023-05-14T03:35:15.842Z,3.30
2023-05-14T03:36:15.893Z,3.19
2023-05-14T03:37:15.911Z,2.82
2023-05-14T03:38:15.980Z,3.29
2023-05-14T03:39:15.970Z,2.93
2023-05-14T03:40:16.024Z,2.55
2023-05-14T03:41:16.394Z,3.12
2023-05-14T03:42:16.111Z,3.18
2023-05-14T03:43:16.138Z,3.00
2023-05-14T03:44:16.170Z,3.39
2023-05-14T03:45:16.195Z,3.47
2023-05-14T03:46:16.364Z,2.77
2023-05-14T03:47:16.262Z,3.28
2023-05-14T03:48:16.398Z,3.19
2023-05-14T03:49:16.347Z,2.35
2023-05-14T03:50:16.432Z,2.74
2023-05-14T03:51:16.843Z,2.94
2023-05-14T03:52:16.411Z,2.03
2023-05-14T03:53:16.432Z,2.51
2023-05-14T03:54:16.451Z,2.39
2023-05-14T03:55:16.496Z,2.00
2023-05-14T03:56:16.869Z,1.98
2023-05-14T03:57:16.576Z,2.86
2023-05-14T03:58:16.625Z,2.30
2023-05-14T03:59:16.673Z,2.64
2023-05-14T04:00:16.682Z,2.64
2023-05-14T04:01:16.750Z,2.55
2023-05-14T04:02:17.355Z,2.15
2023-05-14T04:03:16.871Z,2.79
2023-05-14T04:04:16.778Z,2.61
2023-05-14T04:05:16.816Z,2.59
2023-05-14T04:06:16.848Z,2.83
2023-05-14T04:07:16.871Z,2.67
2023-05-14T04:08:16.920Z,2.13
2023-05-14T04:09:16.922Z,3.37
2023-05-14T04:10:16.952Z,2.84
2023-05-14T04:11:17.019Z,2.41
2023-05-14T04:12:17.032Z,3.07
2023-05-14T04:13:17.056Z,2.57
2023-05-14T04:14:17.113Z,2.76
2023-05-14T04:15:17.135Z,2.74
2023-05-14T04:16:17.246Z,2.44
2023-05-14T04:17:17.233Z,3.19
2023-05-14T04:18:17.268Z,3.07
2023-05-14T04:19:17.385Z,2.41
2023-05-14T04:20:17.321Z,2.96
2023-05-14T04:21:17.357Z,2.71
2023-05-14T04:22:17.398Z,3.44
2023-05-14T04:23:17.418Z,2.81
2023-05-14T04:24:17.446Z,2.75
2023-05-14T04:25:17.492Z,2.88
2023-05-14T04:26:17.514Z,2.87
2023-05-14T04:27:17.560Z,2.72
2023-05-14T04:28:17.561Z,2.85
2023-05-14T04:29:17.647Z,3.02
2023-05-14T04:30:17.678Z,2.81
2023-05-14T04:31:17.727Z,2.78
2023-05-14T04:32:17.771Z,3.29
2023-05-14T04:33:17.791Z,2.78
2023-05-14T04:34:17.843Z,2.14
2023-05-14T04:35:17.904Z,1.90
2023-05-14T04:36:18.365Z,1.55
2023-05-14T04:37:17.937Z,1.67
2023-05-14T04:38:18.012Z,1.79
2023-05-14T04:39:18.048Z,1.76
2023-05-14T04:40:18.108Z,1.73
2023-05-14T04:41:18.381Z,1.91
2023-05-14T04:42:18.144Z,1.82
2023-05-14T04:43:18.174Z,2.03
2023-05-14T04:44:18.234Z,1.59
2023-05-14T04:45:18.307Z,1.75
2023-05-14T04:46:18.353Z,2.26
2023-05-14T04:47:18.369Z,2.84
2023-05-14T04:48:18.372Z,2.87
2023-05-14T04:49:18.432Z,2.87
2023-05-14T04:50:18.505Z,2.46
2023-05-14T04:51:18.496Z,2.84
2023-05-14T04:52:18.623Z,2.64
2023-05-14T04:53:18.588Z,2.71
2023-05-14T04:54:18.671Z,3.41
2023-05-14T04:55:18.744Z,3.46
2023-05-14T04:56:18.761Z,3.06
2023-05-14T04:57:18.795Z,3.48
2023-05-14T04:58:18.847Z,3.04
2023-05-14T04:59:18.866Z,2.54
2023-05-14T05:00:18.906Z,3.21
2023-05-14T05:01:19.026Z,3.07
2023-05-14T05:02:19.016Z,3.34
2023-05-14T05:03:19.159Z,3.12
2023-05-14T05:04:19.208Z,3.08
2023-05-14T05:05:19.164Z,3.48
2023-05-14T05:06:19.203Z,3.55
2023-05-14T05:07:19.236Z,3.18
2023-05-14T05:08:19.311Z,3.14
2023-05-14T05:09:19.315Z,3.04
2023-05-14T05:10:19.370Z,3.33
2023-05-14T05:11:19.402Z,3.07
2023-05-14T05:12:19.442Z,2.87
2023-05-14T05:13:19.478Z,3.35
2023-05-14T05:14:19.521Z,3.49
2023-05-14T05:15:19.545Z,2.68
2023-05-14T05:16:19.616Z,3.05
2023-05-14T05:17:19.701Z,3.18
2023-05-14T05:18:20.378Z,2.96
2023-05-14T05:19:22.412Z,3.26
2023-05-14T05:20:20.825Z,3.70
2023-05-14T05:21:19.745Z,3.21
2023-05-14T05:22:19.754Z,3.34
2023-05-14T05:23:19.761Z,3.47
2023-05-14T05:24:19.766Z,3.33
2023-05-14T05:25:19.750Z,3.29
2023-05-14T05:26:19.711Z,3.36
2023-05-14T05:27:19.713Z,3.29
2023-05-14T05:28:19.692Z,3.35
2023-05-14T05:29:19.690Z,3.62
2023-05-14T05:30:20.365Z,3.65
2023-05-14T05:31:20.043Z,3.90
2023-05-14T05:32:19.784Z,3.54
2023-05-14T05:33:19.833Z,3.92
2023-05-14T05:34:19.871Z,3.89
2023-05-14T05:35:19.916Z,3.21
2023-05-14T05:36:19.944Z,3.68
2023-05-14T05:37:20.022Z,3.25
2023-05-14T05:38:20.067Z,3.42
2023-05-14T05:39:20.124Z,3.46
2023-05-14T05:40:20.143Z,3.92
2023-05-14T05:41:20.197Z,3.07
2023-05-14T05:42:20.220Z,3.22
2023-05-14T05:43:20.267Z,3.01
2023-05-14T05:44:20.307Z,3.65
2023-05-14T05:45:20.354Z,3.63
2023-05-14T05:46:20.452Z,3.45
2023-05-14T05:47:20.514Z,3.41
2023-05-14T05:48:20.500Z,3.92
2023-05-14T05:49:20.564Z,3.25
2023-05-14T05:50:20.706Z,2.83
2023-05-14T05:51:20.680Z,2.96
2023-05-14T05:52:20.718Z,3.64
2023-05-14T05:53:20.732Z,3.23
2023-05-14T05:54:20.784Z,2.93
2023-05-14T05:55:20.827Z,2.43
2023-05-14T05:56:20.897Z,2.88
2023-05-14T05:57:20.956Z,3.14
2023-05-14T05:58:20.981Z,2.53
2023-05-14T05:59:21.007Z,3.14
2023-05-14T06:00:21.168Z,2.90
2023-05-14T06:01:21.145Z,2.60
2023-05-14T06:02:21.207Z,2.68
2023-05-14T06:03:21.242Z,2.60
2023-05-14T06:04:21.247Z,2.46
2023-05-14T06:05:21.305Z,2.77
2023-05-14T06:06:21.324Z,2.51
2023-05-14T06:07:21.398Z,2.40
2023-05-14T06:08:21.450Z,2.50
2023-05-14T06:09:21.481Z,3.03
2023-05-14T06:10:21.624Z,2.80
2023-05-14T06:11:21.558Z,2.69
2023-05-14T06:12:21.588Z,2.40
2023-05-14T06:13:21.692Z,2.88
2023-05-14T06:14:21.734Z,2.30
2023-05-14T06:15:21.756Z,2.45
2023-05-14T06:16:21.828Z,2.32
2023-05-14T06:17:21.891Z,2.77
2023-05-14T06:18:21.924Z,2.73
2023-05-14T06:19:21.935Z,2.50
2023-05-14T06:20:22.167Z,2.79
2023-05-14T06:21:22.407Z,2.72
2023-05-14T06:22:22.111Z,2.62
2023-05-14T06:23:22.150Z,2.78
2023-05-14T06:24:22.223Z,2.85
2023-05-14T06:25:22.217Z,2.68
2023-05-14T06:26:22.407Z,2.54
2023-05-14T06:27:22.297Z,2.98
2023-05-14T06:28:22.398Z,2.97
2023-05-14T06:29:22.434Z,2.40
2023-05-14T06:30:22.743Z,2.57
2023-05-14T06:31:22.540Z,2.78
2023-05-14T06:32:22.670Z,2.27
2023-05-14T06:33:22.653Z,2.77
2023-05-14T06:34:22.680Z,2.08
2023-05-14T06:35:22.731Z,2.49
2023-05-14T06:36:22.767Z,2.73
2023-05-14T06:37:22.869Z,2.93
2023-05-14T06:38:22.869Z,2.51
2023-05-14T06:39:22.947Z,2.49
2023-05-14T06:40:23.421Z,2.39
2023-05-14T06:41:23.036Z,2.29
2023-05-14T06:42:23.092Z,2.78
2023-05-14T06:43:23.158Z,2.30
2023-05-14T06:44:23.199Z,2.82
2023-05-14T06:45:23.293Z,2.52
2023-05-14T06:46:23.421Z,2.06
2023-05-14T06:47:23.369Z,2.09
2023-05-14T06:48:23.492Z,2.46
2023-05-14T06:49:23.436Z,2.53
2023-05-14T06:50:23.855Z,2.12
2023-05-14T06:51:23.546Z,2.26
2023-05-14T06:52:23.674Z,1.99
2023-05-14T06:53:23.637Z,1.84
2023-05-14T06:54:23.671Z,2.31
2023-05-14T06:55:23.711Z,1.93
2023-05-14T06:56:23.802Z,2.04
2023-05-14T06:57:23.822Z,1.87
2023-05-14T06:58:23.861Z,2.09
2023-05-14T06:59:23.939Z,1.94
2023-05-14T07:00:24.159Z,2.07
2023-05-14T07:01:24.051Z,2.21
2023-05-14T07:02:24.101Z,2.08
2023-05-14T07:03:24.097Z,1.59
2023-05-14T07:04:24.222Z,1.83
2023-05-14T07:05:24.239Z,1.66
2023-05-14T07:06:24.271Z,1.69
2023-05-14T07:07:24.296Z,2.05
2023-05-14T07:08:24.373Z,1.91
2023-05-14T07:09:24.391Z,1.96
2023-05-14T07:10:24.554Z,1.98
2023-05-14T07:11:24.513Z,1.92
2023-05-14T07:12:24.547Z,2.01
2023-05-14T07:13:25.761Z,2.13
2023-05-14T07:14:24.545Z,1.87
2023-05-14T07:15:24.549Z,2.08
2023-05-14T07:16:24.539Z,2.03
2023-05-14T07:17:24.691Z,2.37
2023-05-14T07:18:24.540Z,2.22
2023-05-14T07:19:24.522Z,1.84
2023-05-14T07:20:24.718Z,1.97
2023-05-14T07:21:24.522Z,1.87
2023-05-14T07:22:24.486Z,1.85
2023-05-14T07:23:24.519Z,2.31
2023-05-14T07:24:24.506Z,1.88
2023-05-14T07:25:24.468Z,1.61
2023-05-14T07:26:24.545Z,2.06
2023-05-14T07:27:24.444Z,2.21
2023-05-14T07:28:24.468Z,1.81
2023-05-14T07:29:24.451Z,1.93
2023-05-14T07:30:24.740Z,1.99
2023-05-14T07:31:24.454Z,1.74
2023-05-14T07:32:24.435Z,1.94
2023-05-14T07:33:24.439Z,1.70
2023-05-14T07:34:24.411Z,1.62
2023-05-14T07:35:24.426Z,1.89
2023-05-14T07:36:24.420Z,1.73
2023-05-14T07:37:24.389Z,1.65
2023-05-14T07:38:24.363Z,1.82
2023-05-14T07:39:24.377Z,2.24
2023-05-14T07:40:24.497Z,1.62
2023-05-14T07:41:24.348Z,1.54
2023-05-14T07:42:35.065Z,1.98
2023-05-14T07:43:25.358Z,1.85
2023-05-14T07:44:24.345Z,1.87
2023-05-14T07:45:24.331Z,1.82
2023-05-14T07:46:24.326Z,1.59
2023-05-14T07:47:24.379Z,2.00
2023-05-14T07:48:24.366Z,1.76
2023-05-14T07:49:24.352Z,1.51
2023-05-14T07:50:24.516Z,1.89
2023-05-14T07:51:24.284Z,1.48
2023-05-14T07:52:24.310Z,1.96
2023-05-14T07:53:24.291Z,1.55
2023-05-14T07:54:24.326Z,1.96
2023-05-14T07:55:24.367Z,2.01
2023-05-14T07:56:24.417Z,1.59
2023-05-14T07:57:24.447Z,1.87
2023-05-14T07:58:24.459Z,1.69
2023-05-14T07:59:24.521Z,1.76
2023-05-14T08:00:24.746Z,1.60
2023-05-14T08:01:24.603Z,2.08
2023-05-14T08:02:25.065Z,1.69
2023-05-14T08:03:24.851Z,1.64
2023-05-14T08:04:24.796Z,1.71
2023-05-14T08:05:24.763Z,1.90
2023-05-14T08:06:24.797Z,1.90
2023-05-14T08:07:24.868Z,1.74
2023-05-14T08:08:24.883Z,1.82
2023-05-14T08:09:24.927Z,1.71
2023-05-14T08:10:25.160Z,1.96
2023-05-14T08:11:25.014Z,2.37
2023-05-14T08:12:25.059Z,1.82
2023-05-14T08:13:25.075Z,1.90
2023-05-14T08:14:25.131Z,2.14
2023-05-14T08:15:27.573Z,1.86
2023-05-14T08:16:25.202Z,1.72
2023-05-14T08:17:25.493Z,1.55
2023-05-14T08:18:25.187Z,1.89
2023-05-14T08:19:25.138Z,1.84
2023-05-14T08:20:25.511Z,1.79
2023-05-14T08:21:25.148Z,1.75
2023-05-14T08:22:25.144Z,1.68
2023-05-14T08:23:25.109Z,1.87
2023-05-14T08:24:25.140Z,1.47
2023-05-14T08:25:25.125Z,1.58
2023-05-14T08:26:25.089Z,2.03
2023-05-14T08:27:25.110Z,2.09
2023-05-14T08:28:25.086Z,1.54
2023-05-14T08:29:25.077Z,1.68
2023-05-14T08:30:25.449Z,1.66
2023-05-14T08:31:25.181Z,1.37
2023-05-14T08:32:25.068Z,1.61
2023-05-14T08:33:25.038Z,1.72
2023-05-14T08:34:25.058Z,1.37
2023-05-14T08:35:25.043Z,1.74
2023-05-14T08:36:25.035Z,1.76
2023-05-14T08:37:25.023Z,1.76
2023-05-14T08:38:25.021Z,1.75
2023-05-14T08:39:24.995Z,1.75
2023-05-14T08:40:25.286Z,1.41
2023-05-14T08:41:25.021Z,1.61
2023-05-14T08:42:24.987Z,1.45
2023-05-14T08:43:25.049Z,1.41
2023-05-14T08:44:24.950Z,1.45
2023-05-14T08:45:24.938Z,1.41
2023-05-14T08:46:24.947Z,1.29
2023-05-14T08:47:24.981Z,1.43
2023-05-14T08:48:24.968Z,1.50
2023-05-14T08:49:24.940Z,1.27
2023-05-14T08:50:25.240Z,1.33
2023-05-14T08:51:24.915Z,1.52
2023-05-14T08:52:24.952Z,1.24
2023-05-14T08:53:24.886Z,1.47
2023-05-14T08:54:24.921Z,1.19
2023-05-14T08:55:24.861Z,1.25
2023-05-14T08:56:24.916Z,1.39
2023-05-14T08:57:24.892Z,1.52
2023-05-14T08:58:24.888Z,1.42
2023-05-14T08:59:24.847Z,1.33
2023-05-14T09:00:25.169Z,1.21
2023-05-14T09:01:24.934Z,1.37
2023-05-14T09:02:25.093Z,1.00
2023-05-14T09:03:24.995Z,1.07
2023-05-14T09:04:24.994Z,1.24
2023-05-14T09:05:25.046Z,1.50
2023-05-14T09:06:25.086Z,1.24
2023-05-14T09:07:25.102Z,0.89
2023-05-14T09:08:25.125Z,1.07
2023-05-14T09:09:25.172Z,1.23
2023-05-14T09:10:25.553Z,1.26
2023-05-14T09:11:25.229Z,0.94
2023-05-14T09:12:25.267Z,0.99
2023-05-14T09:13:27.621Z,0.90
2023-05-14T09:14:25.356Z,1.20
2023-05-14T09:15:25.297Z,1.23
2023-05-14T09:16:25.301Z,1.12
2023-05-14T09:17:25.306Z,0.93
2023-05-14T09:18:25.399Z,1.15
2023-05-14T09:19:25.244Z,1.24
2023-05-14T09:20:25.692Z,1.11
2023-05-14T09:21:25.265Z,1.31
2023-05-14T09:22:25.258Z,1.17
2023-05-14T09:23:25.230Z,1.07
2023-05-14T09:24:25.240Z,1.24
2023-05-14T09:25:25.236Z,1.16
2023-05-14T09:26:25.223Z,1.12
2023-05-14T09:27:25.225Z,1.18
2023-05-14T09:28:25.189Z,1.04
2023-05-14T09:29:25.193Z,1.06
2023-05-14T09:30:25.474Z,0.92
2023-05-14T09:31:25.225Z,1.25
2023-05-14T09:32:25.241Z,1.12
2023-05-14T09:33:25.175Z,1.35
2023-05-14T09:34:25.130Z,1.06
2023-05-14T09:35:25.195Z,1.29
2023-05-14T09:36:25.156Z,1.11
2023-05-14T09:37:25.125Z,1.00
2023-05-14T09:38:25.127Z,1.27
2023-05-14T09:39:25.127Z,1.08
2023-05-14T09:40:25.531Z,0.95
2023-05-14T09:41:25.094Z,1.02
2023-05-14T09:42:25.469Z,0.94
2023-05-14T09:43:25.090Z,1.07
2023-05-14T09:44:25.102Z,1.15
2023-05-14T09:45:25.094Z,1.15
2023-05-14T09:46:25.092Z,0.88
2023-05-14T09:47:25.233Z,0.85
2023-05-14T09:48:25.090Z,0.87
2023-05-14T09:49:25.053Z,1.27
2023-05-14T09:50:25.290Z,1.15
2023-05-14T09:51:25.047Z,0.93
2023-05-14T09:52:25.037Z,1.25
2023-05-14T09:53:25.056Z,0.93
2023-05-14T09:54:25.006Z,1.16
2023-05-14T09:55:25.007Z,1.08
2023-05-14T09:56:24.985Z,0.89
2023-05-14T09:57:25.027Z,0.92
2023-05-14T09:58:25.049Z,1.29
2023-05-14T09:59:25.089Z,0.93
2023-05-14T10:00:25.191Z,0.95
2023-05-14T10:01:25.030Z,1.07
2023-05-14T10:02:24.974Z,0.98
2023-05-14T10:03:24.973Z,1.03
2023-05-14T10:04:24.970Z,1.10
2023-05-14T10:05:24.952Z,1.07
2023-05-14T10:06:24.940Z,0.95
2023-05-14T10:07:24.925Z,1.26
2023-05-14T10:08:24.929Z,1.25
2023-05-14T10:09:24.903Z,0.98
2023-05-14T10:10:25.141Z,1.33
2023-05-14T10:11:24.914Z,1.25
2023-05-14T10:12:24.924Z,0.89
2023-05-14T10:13:24.906Z,1.24
2023-05-14T10:14:24.918Z,0.89
2023-05-14T10:15:25.005Z,1.54
2023-05-14T10:16:25.012Z,0.97
2023-05-14T10:17:25.036Z,1.19
2023-05-14T10:18:25.005Z,0.82
2023-05-14T10:19:25.142Z,0.96
2023-05-14T10:20:25.474Z,1.36
2023-05-14T10:21:25.107Z,1.30
2023-05-14T10:22:25.127Z,1.09
2023-05-14T10:23:25.141Z,0.98
2023-05-14T10:24:25.185Z,0.95
2023-05-14T10:25:25.233Z,1.07
2023-05-14T10:26:25.228Z,0.96
2023-05-14T10:27:25.226Z,0.71
2023-05-14T10:28:25.285Z,1.01
2023-05-14T10:29:25.319Z,1.03
2023-05-14T10:30:25.808Z,0.72
2023-05-14T10:31:25.432Z,1.01
2023-05-14T10:32:25.378Z,0.98
2023-05-14T10:33:25.387Z,0.90
2023-05-14T10:34:25.419Z,0.79
2023-05-14T10:35:25.501Z,0.91
2023-05-14T10:36:25.468Z,1.00
2023-05-14T10:37:25.543Z,0.82
2023-05-14T10:38:25.526Z,0.95
2023-05-14T10:39:25.555Z,0.89
2023-05-14T10:40:25.751Z,0.95
2023-05-14T10:41:25.586Z,0.76
2023-05-14T10:42:25.601Z,1.18
2023-05-14T10:43:25.605Z,0.93
2023-05-14T10:44:25.657Z,1.16
2023-05-14T10:45:25.693Z,0.79
2023-05-14T10:46:25.760Z,1.04
2023-05-14T10:47:26.013Z,1.15
2023-05-14T10:48:25.751Z,0.87
2023-05-14T10:49:39.726Z,1.08
2023-05-14T10:50:26.839Z,1.03
2023-05-14T10:51:25.789Z,0.94
2023-05-14T10:52:25.996Z,0.91
2023-05-14T10:53:25.713Z,1.00
2023-05-14T10:54:25.718Z,1.19
2023-05-14T10:55:25.729Z,0.90
2023-05-14T10:56:25.723Z,1.04
2023-05-14T10:57:25.691Z,0.87
2023-05-14T10:58:25.708Z,1.07
2023-05-14T10:59:25.685Z,1.04
2023-05-14T11:00:25.872Z,0.97
2023-05-14T11:01:25.690Z,1.01
2023-05-14T11:02:26.095Z,0.95
2023-05-14T11:03:25.704Z,1.06
2023-05-14T11:04:25.696Z,0.90
2023-05-14T11:05:25.653Z,0.78
2023-05-14T11:06:25.675Z,1.07
2023-05-14T11:07:25.669Z,0.88
2023-05-14T11:08:28.026Z,0.70
2023-05-14T11:09:25.625Z,1.19
2023-05-14T11:10:25.899Z,0.80
2023-05-14T11:11:25.647Z,1.24
2023-05-14T11:12:25.637Z,0.92
2023-05-14T11:13:25.645Z,1.00
2023-05-14T11:14:25.587Z,1.20
2023-05-14T11:15:25.610Z,0.94
2023-05-14T11:16:25.609Z,1.06
2023-05-14T11:17:26.027Z,0.88
2023-05-14T11:18:25.611Z,0.99
2023-05-14T11:19:25.539Z,1.13
2023-05-14T11:20:25.923Z,1.23
2023-05-14T11:21:25.586Z,0.96
2023-05-14T11:22:25.592Z,1.01
2023-05-14T11:23:25.523Z,0.74
2023-05-14T11:24:25.591Z,0.85
2023-05-14T11:25:25.494Z,0.96
2023-05-14T11:26:25.591Z,1.12
2023-05-14T11:27:25.514Z,0.88
2023-05-14T11:28:25.530Z,0.66
2023-05-14T11:29:25.471Z,1.12
2023-05-14T11:30:25.727Z,0.66
2023-05-14T11:31:25.502Z,1.04
2023-05-14T11:32:25.473Z,0.82
2023-05-14T11:33:25.488Z,0.69
2023-05-14T11:34:25.459Z,0.89
2023-05-14T11:35:25.441Z,0.79
2023-05-14T11:36:25.457Z,0.91
2023-05-14T11:37:25.442Z,0.79
2023-05-14T11:38:25.437Z,0.87
2023-05-14T11:39:25.415Z,0.97
2023-05-14T11:40:25.639Z,0.82
2023-05-14T11:41:25.400Z,1.07
2023-05-14T11:42:25.439Z,0.75
2023-05-14T11:43:25.419Z,0.85
2023-05-14T11:44:25.403Z,0.84
2023-05-14T11:45:25.386Z,0.80
2023-05-14T11:46:25.416Z,0.85
2023-05-14T11:47:25.398Z,0.82
2023-05-14T11:48:25.391Z,0.87
2023-05-14T11:49:25.382Z,0.87
2023-05-14T11:50:25.541Z,0.92
2023-05-14T11:51:25.359Z,1.09
2023-05-14T11:52:25.347Z,0.92
2023-05-14T11:53:25.355Z,0.94
2023-05-14T11:54:25.345Z,0.73
2023-05-14T11:55:25.281Z,0.81
2023-05-14T11:56:25.290Z,0.94
2023-05-14T11:57:26.022Z,0.90
2023-05-14T11:58:25.559Z,0.86
2023-05-14T11:59:25.291Z,1.04
2023-05-14T12:00:25.494Z,0.97
2023-05-14T12:01:25.304Z,0.85
2023-05-14T12:02:25.324Z,0.81
2023-05-14T12:03:25.858Z,0.91
2023-05-14T12:04:25.276Z,1.21
2023-05-14T12:05:25.209Z,0.79
2023-05-14T12:06:25.239Z,0.92
2023-05-14T12:07:25.249Z,0.82
2023-05-14T12:08:25.216Z,1.09
2023-05-14T12:09:25.203Z,0.87
2023-05-14T12:10:25.524Z,0.85
2023-05-14T12:11:25.173Z,0.99
2023-05-14T12:12:25.193Z,0.58
2023-05-14T12:13:25.169Z,0.68
2023-05-14T12:14:25.188Z,0.77
2023-05-14T12:15:25.199Z,0.94
2023-05-14T12:16:25.195Z,0.95
2023-05-14T12:17:25.181Z,1.23
2023-05-14T12:18:25.542Z,1.13
2023-05-14T12:19:25.178Z,1.03
2023-05-14T12:20:25.361Z,1.00
2023-05-14T12:21:25.113Z,1.00
2023-05-14T12:22:25.157Z,0.93
2023-05-14T12:23:25.515Z,1.02
2023-05-14T12:24:25.217Z,0.87
2023-05-14T12:25:25.232Z,1.06
2023-05-14T12:26:25.272Z,1.14
2023-05-14T12:27:25.265Z,1.23
2023-05-14T12:28:25.284Z,0.94
2023-05-14T12:29:25.288Z,0.93
2023-05-14T12:30:25.305Z,1.15
2023-05-14T12:31:25.312Z,0.95
2023-05-14T12:32:25.315Z,1.02
2023-05-14T12:33:25.531Z,1.19
2023-05-14T12:34:25.348Z,0.96
2023-05-14T12:35:25.520Z,0.97
2023-05-14T12:36:25.406Z,1.23
2023-05-14T12:37:25.419Z,1.06
2023-05-14T12:38:25.559Z,1.23
2023-05-14T12:39:25.433Z,1.03
2023-05-14T12:40:25.737Z,0.93
2023-05-14T12:41:25.441Z,0.90
2023-05-14T12:42:25.493Z,1.11
2023-05-14T12:43:25.550Z,0.95
2023-05-14T12:44:25.508Z,1.04
2023-05-14T12:45:25.701Z,0.93
2023-05-14T12:46:25.564Z,1.03
2023-05-14T12:47:25.592Z,0.92
2023-05-14T12:48:25.578Z,1.23
2023-05-14T12:49:25.554Z,0.99
2023-05-14T12:50:25.821Z,1.06
2023-05-14T12:51:25.604Z,1.01
2023-05-14T12:52:36.852Z,0.84
2023-05-14T12:53:26.689Z,0.98
2023-05-14T12:54:25.577Z,1.00
2023-05-14T12:55:25.571Z,1.00
2023-05-14T12:56:25.542Z,0.97
2023-05-14T12:57:25.539Z,0.82
2023-05-14T12:58:25.550Z,0.83
2023-05-14T12:59:25.505Z,0.85
2023-05-14T13:00:25.749Z,0.71
2023-05-14T13:01:32.716Z,1.19
2023-05-14T13:02:25.537Z,0.97
2023-05-14T13:03:25.572Z,0.99
2023-05-14T13:04:25.587Z,0.91
2023-05-14T13:05:25.890Z,1.27
2023-05-14T13:06:25.494Z,1.24
2023-05-14T13:07:25.451Z,1.41
2023-05-14T13:08:25.477Z,1.21
2023-05-14T13:09:25.483Z,1.15
2023-05-14T13:10:25.455Z,1.13
2023-05-14T13:11:25.445Z,1.13
2023-05-14T13:12:25.416Z,1.08
2023-05-14T13:13:25.421Z,1.09
2023-05-14T13:14:25.437Z,0.89
2023-05-14T13:15:25.635Z,0.82
2023-05-14T13:16:25.444Z,0.97
2023-05-14T13:17:25.483Z,0.74
2023-05-14T13:18:25.430Z,1.02